createdAt,value
2019-02-25T00:01:20.447Z,5.40
2019-02-25T00:03:25.951Z,6.07
2019-02-25T00:05:32.721Z,5.70
2019-02-25T00:07:37.917Z,7.40
2019-02-25T00:09:46.816Z,5.83
2019-02-25T00:11:51.992Z,7.40
2019-02-25T00:13:59.958Z,9.20
2019-02-25T00:16:04.546Z,10.30
2019-02-25T00:18:11.507Z,9.70
2019-02-25T00:20:27.649Z,6.80
2019-02-25T00:22:35.025Z,3.97
2019-02-25T00:24:39.936Z,5.40
2019-02-25T00:26:45.128Z,5.10
2019-02-25T00:28:49.966Z,8.17
2019-02-25T00:30:56.863Z,7.80
2019-02-25T00:33:02.223Z,5.63
2019-02-25T00:35:07.198Z,6.30
2019-02-25T00:37:11.712Z,6.77
2019-02-25T00:39:16.593Z,5.07
2019-02-25T00:41:22.083Z,8.80
2019-02-25T00:43:27.266Z,7.53
2019-02-25T00:45:31.737Z,4.80
2019-02-25T00:47:36.220Z,6.47
2019-02-25T00:49:40.721Z,6.63
2019-02-25T00:51:48.318Z,3.80
2019-02-25T00:53:52.867Z,4.80
2019-02-25T00:55:58.526Z,5.97
2019-02-25T00:58:04.656Z,7.27
2019-02-25T01:00:12.037Z,5.90
2019-02-25T01:02:16.575Z,5.93
2019-02-25T01:04:21.165Z,4.23
2019-02-25T01:06:25.664Z,4.03
2019-02-25T01:08:30.272Z,6.73
2019-02-25T01:10:34.757Z,8.07
2019-02-25T01:12:39.688Z,6.13
2019-02-25T01:14:44.992Z,8.23
2019-02-25T01:16:50.598Z,5.17
2019-02-25T01:18:55.120Z,6.90
2019-02-25T01:21:02.942Z,5.30
2019-02-25T01:23:07.514Z,8.13
2019-02-25T01:25:13.318Z,3.77
2019-02-25T01:27:20.626Z,8.00
2019-02-25T01:29:26.285Z,4.93
2019-02-25T01:31:31.038Z,6.67
2019-02-25T01:33:37.987Z,4.60
2019-02-25T01:35:42.725Z,6.70
2019-02-25T01:37:47.246Z,5.83
2019-02-25T01:39:52.088Z,7.57
2019-02-25T01:41:58.075Z,5.33
2019-02-25T01:44:02.912Z,4.80
2019-02-25T01:46:07.759Z,6.10
2019-02-25T01:48:14.940Z,5.07
2019-02-25T01:50:20.034Z,3.97
2019-02-25T01:52:24.867Z,4.93
2019-02-25T01:54:32.440Z,4.70
2019-02-25T01:56:39.304Z,7.50
2019-02-25T01:58:45.565Z,6.80
2019-02-25T02:00:50.467Z,8.13
2019-02-25T02:02:57.407Z,9.37
2019-02-25T02:05:25.382Z,9.03
2019-02-25T02:07:34.496Z,3.57
2019-02-25T02:09:43.412Z,4.03
2019-02-25T02:11:56.740Z,4.30
2019-02-25T02:14:04.143Z,5.30
2019-02-25T02:16:08.973Z,4.00
2019-02-25T02:18:13.559Z,7.40
2019-02-25T02:20:18.311Z,3.00
2019-02-25T02:22:24.209Z,5.17
2019-02-25T02:24:30.311Z,2.90
2019-02-25T02:26:36.804Z,5.73
2019-02-25T02:28:41.597Z,5.27
2019-02-25T02:30:46.416Z,7.17
2019-02-25T02:32:53.042Z,3.67
2019-02-25T02:34:57.843Z,5.23
2019-02-25T02:37:04.737Z,4.60
2019-02-25T02:39:20.540Z,4.10
2019-02-25T02:41:26.117Z,5.50
2019-02-25T02:43:30.889Z,5.37
2019-02-25T02:45:57.608Z,5.90
2019-02-25T02:48:05.487Z,3.77
2019-02-25T02:50:13.339Z,5.37
2019-02-25T02:52:18.672Z,6.13
2019-02-25T02:54:24.955Z,5.07
2019-02-25T02:56:29.776Z,5.07
2019-02-25T02:58:34.741Z,7.10
2019-02-25T03:00:39.276Z,3.53
2019-02-25T03:02:43.869Z,6.83
2019-02-25T03:04:49.195Z,5.27
2019-02-25T03:06:54.079Z,4.40
2019-02-25T03:08:58.693Z,7.37
2019-02-25T03:11:03.156Z,4.83
2019-02-25T03:13:10.434Z,4.43
2019-02-25T03:15:20.077Z,6.70
2019-02-25T03:17:24.947Z,5.40
2019-02-25T03:19:29.507Z,5.87
2019-02-25T03:21:35.437Z,3.00
2019-02-25T03:23:41.144Z,4.90
2019-02-25T03:25:46.149Z,3.63
2019-02-25T03:27:51.043Z,6.70
2019-02-25T03:29:55.884Z,4.10
2019-02-25T03:32:00.774Z,7.30
2019-02-25T03:34:07.881Z,4.43
2019-02-25T03:36:12.359Z,3.37
2019-02-25T03:38:16.852Z,6.60
2019-02-25T03:40:24.029Z,5.03
2019-02-25T03:42:29.877Z,6.20
2019-02-25T03:44:34.542Z,4.33
2019-02-25T03:46:41.248Z,5.23
2019-02-25T03:48:46.061Z,4.87
2019-02-25T03:50:50.529Z,6.03
2019-02-25T03:52:55.121Z,5.27
2019-02-25T03:54:59.879Z,3.73
2019-02-25T03:57:05.227Z,4.23
2019-02-25T03:59:10.876Z,6.40
2019-02-25T04:01:15.738Z,3.27
2019-02-25T04:03:20.588Z,3.03
2019-02-25T04:05:25.435Z,5.83
2019-02-25T04:07:30.213Z,4.73
2019-02-25T04:09:35.401Z,7.40
2019-02-25T04:11:40.271Z,5.97
2019-02-25T04:13:45.020Z,2.73
2019-02-25T04:15:51.312Z,7.20
2019-02-25T04:17:56.091Z,4.83
2019-02-25T04:20:00.540Z,4.97
2019-02-25T04:22:05.874Z,4.50
2019-02-25T04:24:11.394Z,7.90
2019-02-25T04:26:16.254Z,5.23
2019-02-25T04:28:21.437Z,5.10
2019-02-25T04:30:26.803Z,4.67
2019-02-25T04:32:35.497Z,6.53
2019-02-25T04:34:42.742Z,6.97
2019-02-25T04:36:47.890Z,7.17
2019-02-25T04:38:53.929Z,6.90
2019-02-25T04:40:58.813Z,5.57
2019-02-25T04:43:04.783Z,10.30
2019-02-25T04:45:16.610Z,4.37
2019-02-25T04:47:21.167Z,7.20
2019-02-25T04:49:26.036Z,5.03
2019-02-25T04:51:30.896Z,6.47
2019-02-25T04:53:35.968Z,3.60
2019-02-25T04:55:43.271Z,6.37
2019-02-25T04:57:48.625Z,6.90
2019-02-25T05:00:00.624Z,6.00
2019-02-25T05:02:05.507Z,6.73
2019-02-25T05:04:11.087Z,4.97
2019-02-25T05:06:15.918Z,6.10
2019-02-25T05:08:21.772Z,6.30
2019-02-25T05:10:28.249Z,13.37
2019-02-25T05:12:33.467Z,4.83
2019-02-25T05:14:38.587Z,7.20
2019-02-25T05:16:43.410Z,3.27
2019-02-25T05:18:47.813Z,8.73
2019-02-25T05:20:53.827Z,11.03
2019-02-25T05:22:59.809Z,3.63
2019-02-25T05:25:05.432Z,8.60
2019-02-25T05:27:11.271Z,5.20
2019-02-25T05:29:17.260Z,4.73
2019-02-25T05:31:23.459Z,7.33
2019-02-25T05:33:28.787Z,3.40
2019-02-25T05:35:47.366Z,7.93
2019-02-25T05:37:57.787Z,7.53
2019-02-25T05:40:04.181Z,6.30
2019-02-25T05:42:08.792Z,6.73
2019-02-25T05:44:13.743Z,5.23
2019-02-25T05:46:18.798Z,4.93
2019-02-25T05:48:23.225Z,7.00
2019-02-25T05:50:29.409Z,6.00
2019-02-25T05:52:35.896Z,6.03
2019-02-25T05:54:40.386Z,11.80
2019-02-25T05:56:45.254Z,6.30
2019-02-25T05:58:51.286Z,7.30
2019-02-25T06:00:55.831Z,9.60
2019-02-25T06:03:02.855Z,3.80
2019-02-25T06:05:07.503Z,6.60
2019-02-25T06:07:12.751Z,6.77
2019-02-25T06:09:18.768Z,8.57
2019-02-25T06:11:23.539Z,5.90
2019-02-25T06:13:29.473Z,8.77
2019-02-25T06:15:36.866Z,8.07
2019-02-25T06:17:41.600Z,7.00
2019-02-25T06:19:48.706Z,6.70
2019-02-25T06:21:53.871Z,4.50
2019-02-25T06:23:58.447Z,5.87
2019-02-25T06:26:04.361Z,5.30
2019-02-25T06:28:08.883Z,6.63
2019-02-25T06:30:16.064Z,8.37
2019-02-25T06:32:20.536Z,4.70
2019-02-25T06:34:25.162Z,4.67
2019-02-25T06:36:29.762Z,7.77
2019-02-25T06:38:34.604Z,11.57
2019-02-25T06:40:40.647Z,13.87
2019-02-25T06:42:45.979Z,3.87
2019-02-25T06:44:50.931Z,5.83
2019-02-25T06:46:55.528Z,4.27
2019-02-25T06:49:00.252Z,6.80
2019-02-25T06:51:05.017Z,8.40
2019-02-25T06:53:09.526Z,4.93
2019-02-25T06:55:14.967Z,14.33
2019-02-25T06:57:19.528Z,3.73
2019-02-25T06:59:24.995Z,7.00
2019-02-25T07:01:32.194Z,5.70
2019-02-25T07:03:37.544Z,8.83
2019-02-25T07:05:54.119Z,6.60
2019-02-25T07:08:02.779Z,5.67
2019-02-25T07:10:29.514Z,5.17
2019-02-25T07:12:45.247Z,5.73
2019-02-25T07:15:10.174Z,7.23
2019-02-25T07:17:34.018Z,5.93
2019-02-25T07:19:59.429Z,7.37
2019-02-25T07:22:21.353Z,4.60
2019-02-25T07:24:52.818Z,4.80
2019-02-25T07:27:01.740Z,8.20
2019-02-25T07:29:25.580Z,4.63
2019-02-25T07:31:36.731Z,4.83
2019-02-25T07:34:09.872Z,5.47
2019-02-25T07:36:33.707Z,4.00
2019-02-25T07:39:00.203Z,6.87
2019-02-25T07:41:16.779Z,6.30
2019-02-25T07:43:55.137Z,7.30
2019-02-25T07:46:32.156Z,13.27
2019-02-25T07:48:58.351Z,5.93
2019-02-25T07:51:17.723Z,8.03
2019-02-25T07:53:44.062Z,17.10
2019-02-25T07:56:13.723Z,7.40
2019-02-25T07:58:40.884Z,7.63
2019-02-25T08:01:00.109Z,5.10
2019-02-25T08:03:11.972Z,4.63
2019-02-25T08:05:35.403Z,8.17
2019-02-25T08:08:00.230Z,6.67
2019-02-25T08:10:14.739Z,4.70
2019-02-25T08:12:29.593Z,8.83
2019-02-25T08:15:02.326Z,5.57
2019-02-25T08:17:31.967Z,7.10
2019-02-25T08:19:43.957Z,3.97
2019-02-25T08:22:10.451Z,6.97
2019-02-25T08:24:36.728Z,4.07
2019-02-25T08:27:01.211Z,7.57
2019-02-25T08:29:18.534Z,6.23
2019-02-25T08:31:58.137Z,8.17
2019-02-25T08:34:22.059Z,3.43
2019-02-25T08:37:09.024Z,9.60
2019-02-25T08:39:35.970Z,5.10
2019-02-25T08:41:51.645Z,4.90
2019-02-25T08:44:11.019Z,6.83
2019-02-25T08:46:26.119Z,11.73
2019-02-25T08:48:42.718Z,3.57
2019-02-25T08:50:47.769Z,7.40
2019-02-25T08:52:54.479Z,6.30
2019-02-25T08:55:00.301Z,6.77
2019-02-25T08:57:05.279Z,5.03
2019-02-25T08:59:10.171Z,10.47
2019-02-25T09:01:15.565Z,4.33
2019-02-25T09:03:20.164Z,4.97
2019-02-25T09:05:24.623Z,3.70
2019-02-25T09:07:29.374Z,8.13
2019-02-25T09:09:33.853Z,3.00
2019-02-25T09:11:38.496Z,7.10
2019-02-25T09:13:42.940Z,5.53
2019-02-25T09:15:47.400Z,7.50
2019-02-25T09:17:50.167Z,4.83
2019-02-25T09:19:54.568Z,4.13
2019-02-25T09:22:00.343Z,8.80
2019-02-25T09:24:04.892Z,8.80
2019-02-25T09:26:11.993Z,14.23
2019-02-25T09:28:16.556Z,7.97
2019-02-25T09:30:22.015Z,8.60
2019-02-25T09:32:26.839Z,14.23
2019-02-25T09:34:31.412Z,17.80
2019-02-25T09:36:35.837Z,11.80
2019-02-25T09:38:40.800Z,5.90
2019-02-25T09:40:45.495Z,3.37
2019-02-25T09:42:50.361Z,3.63
2019-02-25T09:44:54.835Z,4.40
2019-02-25T09:46:59.370Z,5.33
2019-02-25T09:49:03.783Z,4.70
2019-02-25T09:51:08.285Z,4.87
2019-02-25T09:53:12.859Z,10.40
2019-02-25T09:55:39.531Z,9.97
2019-02-25T09:57:45.828Z,3.93
2019-02-25T09:59:52.377Z,5.17
2019-02-25T10:01:56.630Z,13.97
2019-02-25T10:04:01.090Z,5.67
2019-02-25T10:06:05.935Z,9.97
2019-02-25T10:08:10.556Z,6.40
2019-02-25T10:10:15.688Z,12.50
2019-02-25T10:12:20.292Z,3.93
2019-02-25T10:14:30.444Z,3.87
2019-02-25T10:16:34.955Z,8.30
2019-02-25T10:18:39.441Z,11.00
2019-02-25T10:20:44.603Z,4.77
2019-02-25T10:22:49.258Z,2.87
2019-02-25T10:24:55.176Z,14.67
2019-02-25T10:27:00.073Z,4.77
2019-02-25T10:29:04.874Z,5.90
2019-02-25T10:31:10.994Z,5.60
2019-02-25T10:33:16.844Z,6.60
2019-02-25T10:35:21.939Z,5.13
2019-02-25T10:37:27.269Z,2.57
2019-02-25T10:39:32.530Z,10.67
2019-02-25T10:41:37.054Z,1.93
2019-02-25T10:43:42.268Z,7.37
2019-02-25T10:45:46.743Z,3.50
2019-02-25T10:47:56.018Z,2.63
2019-02-25T10:49:58.712Z,3.90
2019-02-25T10:52:08.254Z,3.77
2019-02-25T10:54:14.409Z,1.90
2019-02-25T10:56:33.351Z,2.00
2019-02-25T10:58:38.285Z,1.20
2019-02-25T11:00:45.957Z,6.43
2019-02-25T11:02:51.748Z,2.80
2019-02-25T11:04:57.733Z,11.07
2019-02-25T11:07:03.489Z,4.90
2019-02-25T11:09:49.953Z,1.37
2019-02-25T11:11:55.438Z,3.77
2019-02-25T11:14:03.095Z,1.87
2019-02-25T11:16:09.856Z,5.67
2019-02-25T11:18:14.785Z,1.17
2019-02-25T11:20:19.679Z,1.67
2019-02-25T11:22:24.151Z,4.03
2019-02-25T11:24:29.028Z,2.30
2019-02-25T11:26:36.164Z,6.50
2019-02-25T11:28:43.235Z,4.00
2019-02-25T11:30:51.436Z,2.90
2019-02-25T11:32:57.948Z,1.30
2019-02-25T11:35:04.080Z,7.20
2019-02-25T11:37:09.797Z,1.77
2019-02-25T11:39:16.692Z,1.47
2019-02-25T11:41:23.313Z,2.00
2019-02-25T11:43:30.121Z,2.83
2019-02-25T11:45:36.386Z,0.90
2019-02-25T11:47:41.688Z,2.20
2019-02-25T11:49:47.525Z,2.17
2019-02-25T11:51:52.041Z,3.57
2019-02-25T11:53:56.580Z,9.90
2019-02-25T11:56:01.515Z,3.70
2019-02-25T11:58:06.347Z,1.40
2019-02-25T12:00:17.182Z,1.57
2019-02-25T12:02:25.510Z,3.50
2019-02-25T12:04:29.393Z,1.00
2019-02-25T12:06:38.557Z,2.07
2019-02-25T12:08:44.114Z,0.80
2019-02-25T12:10:50.278Z,3.83
2019-02-25T12:12:54.904Z,1.33
2019-02-25T12:14:59.471Z,2.30
2019-02-25T12:17:05.810Z,9.20
2019-02-25T12:19:17.766Z,2.27
2019-02-25T12:21:16.929Z,1.20
2019-02-25T12:23:21.517Z,1.63
2019-02-25T12:25:26.039Z,4.43
2019-02-25T12:27:30.490Z,3.83
2019-02-25T12:29:35.397Z,1.63
2019-02-25T12:31:39.873Z,6.33
2019-02-25T12:33:44.319Z,3.47
2019-02-25T12:35:49.987Z,2.90
2019-02-25T12:37:59.171Z,2.50
2019-02-25T12:40:03.705Z,2.50
2019-02-25T12:42:08.383Z,1.73
2019-02-25T12:44:16.152Z,2.20
2019-02-25T12:46:20.918Z,2.00
2019-02-25T12:48:25.989Z,2.50
2019-02-25T12:50:30.929Z,1.67
2019-02-25T12:52:36.411Z,4.63
2019-02-25T12:54:42.942Z,2.60
2019-02-25T12:56:47.939Z,3.80
2019-02-25T12:58:52.899Z,1.20
2019-02-25T13:00:57.739Z,1.60
2019-02-25T13:03:02.440Z,4.60
2019-02-25T13:05:09.052Z,4.30
2019-02-25T13:07:14.954Z,1.57
2019-02-25T13:09:21.816Z,1.97
2019-02-25T13:11:28.264Z,1.93
2019-02-25T13:13:33.517Z,1.77
2019-02-25T13:15:39.754Z,4.63
2019-02-25T13:17:45.135Z,2.97
2019-02-25T13:19:50.141Z,3.80
2019-02-25T13:21:57.996Z,2.40
2019-02-25T13:24:23.323Z,5.10
2019-02-25T13:26:29.260Z,3.03
2019-02-25T13:28:36.627Z,2.20
2019-02-25T13:30:41.845Z,1.60
2019-02-25T13:32:47.379Z,3.40
2019-02-25T13:34:52.539Z,6.13
2019-02-25T13:37:00.239Z,3.93
2019-02-25T13:39:07.399Z,4.03
2019-02-25T13:41:12.035Z,2.40
2019-02-25T13:43:20.034Z,1.23
2019-02-25T13:45:24.793Z,1.53
2019-02-25T13:47:30.214Z,1.60
2019-02-25T13:49:36.299Z,2.40
2019-02-25T13:51:59.375Z,3.47
2019-02-25T13:54:10.399Z,1.37
2019-02-25T13:56:15.181Z,1.90
2019-02-25T13:58:23.992Z,5.40
2019-02-25T14:00:29.658Z,1.47
2019-02-25T14:02:34.736Z,1.60
2019-02-25T14:04:43.481Z,2.23
2019-02-25T14:06:48.372Z,2.47
2019-02-25T14:08:55.386Z,1.40
2019-02-25T14:11:00.304Z,2.07
2019-02-25T14:13:05.104Z,1.83
2019-02-25T14:15:10.048Z,1.77
2019-02-25T14:17:17.841Z,1.00
2019-02-25T14:19:22.671Z,2.27
2019-02-25T14:21:27.332Z,3.77
2019-02-25T14:23:31.961Z,2.20
2019-02-25T14:25:38.455Z,4.97
2019-02-25T14:27:49.908Z,2.60
2019-02-25T14:29:54.872Z,1.40
2019-02-25T14:31:59.669Z,2.47
2019-02-25T14:34:04.779Z,3.27
2019-02-25T14:36:10.688Z,1.40
2019-02-25T14:38:18.444Z,0.93
2019-02-25T14:40:26.964Z,0.97
2019-02-25T14:42:33.613Z,3.30
2019-02-25T14:44:41.237Z,3.33
2019-02-25T14:46:45.810Z,2.53
2019-02-25T14:48:50.480Z,3.10
2019-02-25T14:50:55.159Z,1.47
2019-02-25T14:53:00.740Z,5.57
2019-02-25T14:55:07.124Z,2.90
2019-02-25T14:57:12.813Z,3.03
2019-02-25T14:59:22.368Z,1.77
2019-02-25T15:01:29.697Z,4.53
2019-02-25T15:03:35.100Z,2.53
2019-02-25T15:05:43.982Z,1.77
2019-02-25T15:07:51.108Z,2.10
2019-02-25T15:09:57.927Z,1.57
2019-02-25T15:12:04.144Z,2.43
2019-02-25T15:14:11.126Z,4.20
2019-02-25T15:16:16.802Z,2.90
2019-02-25T15:18:22.086Z,4.27
2019-02-25T15:20:28.883Z,2.57
2019-02-25T15:22:34.498Z,1.63
2019-02-25T15:24:44.103Z,1.70
2019-02-25T15:26:48.242Z,3.57
2019-02-25T15:28:56.003Z,4.77
2019-02-25T15:31:04.106Z,1.37
2019-02-25T15:33:07.127Z,1.73
2019-02-25T15:35:17.095Z,2.77
2019-02-25T15:37:22.506Z,1.30
2019-02-25T15:39:28.758Z,2.90
2019-02-25T15:41:33.607Z,1.10
2019-02-25T15:43:38.954Z,1.73
2019-02-25T15:45:44.726Z,1.97
2019-02-25T15:47:55.468Z,2.50
2019-02-25T15:50:04.460Z,1.57
2019-02-25T15:52:18.455Z,2.33
2019-02-25T15:54:21.636Z,1.70
2019-02-25T15:56:31.950Z,3.47
2019-02-25T15:58:38.879Z,1.47
2019-02-25T16:00:44.882Z,4.33
2019-02-25T16:02:51.737Z,2.03
2019-02-25T16:05:00.989Z,1.70
2019-02-25T16:07:08.394Z,1.90
2019-02-25T16:09:17.317Z,2.70
2019-02-25T16:11:25.627Z,4.80
2019-02-25T16:13:31.767Z,6.50
2019-02-25T16:15:38.854Z,5.23
2019-02-25T16:17:45.461Z,4.27
2019-02-25T16:19:53.337Z,3.87
2019-02-25T16:22:00.569Z,5.47
2019-02-25T16:24:10.658Z,2.40
2019-02-25T16:26:16.171Z,2.00
2019-02-25T16:28:29.018Z,3.47
2019-02-25T16:30:53.503Z,4.53
2019-02-25T16:33:39.779Z,2.47
2019-02-25T16:36:10.001Z,1.43
2019-02-25T16:38:24.893Z,8.70
2019-02-25T16:40:36.128Z,2.23
2019-02-25T16:42:45.886Z,10.27
2019-02-25T16:45:12.461Z,5.23
2019-02-25T16:47:31.980Z,2.93
2019-02-25T16:49:27.310Z,2.50
2019-02-25T16:51:35.200Z,1.57
2019-02-25T16:53:41.522Z,1.50
2019-02-25T16:55:48.760Z,3.03
2019-02-25T16:57:55.809Z,2.43
2019-02-25T17:00:04.940Z,1.97
2019-02-25T17:02:13.985Z,3.47
2019-02-25T17:04:20.437Z,2.00
2019-02-25T17:06:30.196Z,5.23
2019-02-25T17:08:36.095Z,2.17
2019-02-25T17:10:41.796Z,3.60
2019-02-25T17:12:47.936Z,2.80
2019-02-25T17:14:55.155Z,3.67
2019-02-25T17:17:00.748Z,3.53
2019-02-25T17:19:08.727Z,3.80
2019-02-25T17:21:18.395Z,6.83
2019-02-25T17:23:27.638Z,17.20
2019-02-25T17:25:40.773Z,2.93
2019-02-25T17:27:46.854Z,8.10
2019-02-25T17:29:58.207Z,3.23
2019-02-25T17:32:06.078Z,3.93
2019-02-25T17:34:13.930Z,4.73
2019-02-25T17:36:22.535Z,5.70
2019-02-25T17:38:29.000Z,3.37
2019-02-25T17:43:36.877Z,3.47
2019-02-25T17:45:42.527Z,4.77
2019-02-25T17:47:47.715Z,4.57
2019-02-25T17:49:53.544Z,5.27
2019-02-25T17:51:59.880Z,5.37
2019-02-25T17:54:05.953Z,4.37
2019-02-25T17:56:11.383Z,3.67
2019-02-25T17:58:17.055Z,4.77
2019-02-25T18:00:31.970Z,5.60
2019-02-25T18:02:38.487Z,3.90
2019-02-25T18:04:47.032Z,10.33
2019-02-25T18:07:02.011Z,12.77
2019-02-25T18:09:08.886Z,7.10
2019-02-25T18:11:15.614Z,8.97
2019-02-25T18:13:21.918Z,6.60
2019-02-25T18:15:28.397Z,5.53
2019-02-25T18:17:33.275Z,5.97
2019-02-25T18:19:39.207Z,6.57
2019-02-25T18:21:44.138Z,9.03
2019-02-25T18:23:49.375Z,13.87
2019-02-25T18:26:16.931Z,15.07
2019-02-25T18:28:28.580Z,8.37
2019-02-25T18:30:33.547Z,22.27
2019-02-25T18:34:50.041Z,12.47
2019-02-25T18:36:55.520Z,6.60
2019-02-25T18:39:01.367Z,7.00
2019-02-25T18:41:07.034Z,7.63
2019-02-25T18:43:15.518Z,8.43
2019-02-25T18:45:21.447Z,6.47
2019-02-25T18:47:27.300Z,9.07
2019-02-25T18:49:32.655Z,8.37
2019-02-25T18:51:39.465Z,7.27
2019-02-25T18:53:45.398Z,15.40
2019-02-25T18:56:18.582Z,8.27
2019-02-25T18:58:24.384Z,8.83
2019-02-25T19:00:35.309Z,11.30
2019-02-25T19:02:40.203Z,9.20
2019-02-25T19:04:46.603Z,14.73
2019-02-25T19:06:57.424Z,12.33
2019-02-25T19:09:07.849Z,10.40
2019-02-25T19:11:15.087Z,8.93
2019-02-25T19:13:22.741Z,9.43
2019-02-25T19:15:27.222Z,9.97
2019-02-25T19:17:32.455Z,17.63
2019-02-25T19:19:38.545Z,8.63
2019-02-25T19:21:45.339Z,9.17
2019-02-25T19:23:51.148Z,13.00
2019-02-25T19:26:05.525Z,12.90
2019-02-25T19:28:16.570Z,7.70
2019-02-25T19:30:20.098Z,11.43
2019-02-25T19:32:49.368Z,16.27
2019-02-25T19:34:56.251Z,8.93
2019-02-25T19:37:05.168Z,11.77
2019-02-25T19:39:35.418Z,10.20
2019-02-25T19:41:52.028Z,10.40
2019-02-25T19:44:04.215Z,12.87
2019-02-25T19:46:11.062Z,9.10
2019-02-25T19:48:22.646Z,11.70
2019-02-25T19:50:27.697Z,14.70
2019-02-25T19:52:36.816Z,14.70
2019-02-25T19:54:43.904Z,14.00
2019-02-25T19:56:56.186Z,11.87
2019-02-25T19:59:07.975Z,15.10
2019-02-25T20:01:15.953Z,17.33
2019-02-25T20:03:23.627Z,19.13
2019-02-25T20:05:32.986Z,12.70
2019-02-25T20:07:39.104Z,15.77
2019-02-25T20:09:45.094Z,14.87
2019-02-25T20:11:51.331Z,13.03
2019-02-25T20:14:06.314Z,13.90
2019-02-25T20:16:20.541Z,13.60
2019-02-25T20:18:31.079Z,15.00
2019-02-25T20:20:39.661Z,12.53
2019-02-25T20:22:49.456Z,17.10
2019-02-25T20:24:55.757Z,10.23
2019-02-25T20:27:05.220Z,14.83
2019-02-25T20:29:14.110Z,20.07
2019-02-25T20:31:20.418Z,16.53
2019-02-25T20:33:31.820Z,23.10
2019-02-25T20:35:48.980Z,14.63
2019-02-25T20:37:53.730Z,17.47
2019-02-25T20:40:08.575Z,20.73
2019-02-25T20:42:21.469Z,14.00
2019-02-25T20:44:28.357Z,17.57
2019-02-25T20:46:35.411Z,18.27
2019-02-25T20:49:02.422Z,14.13
2019-02-25T20:51:11.947Z,16.43
2019-02-25T20:53:17.966Z,22.93
2019-02-25T20:55:24.921Z,14.80
2019-02-25T20:57:52.813Z,13.37
2019-02-25T21:00:04.141Z,12.63
2019-02-25T21:02:13.780Z,17.40
2019-02-25T21:07:02.731Z,13.70
2019-02-25T21:09:13.051Z,18.53
2019-02-25T21:11:26.924Z,15.80
2019-02-25T21:13:33.675Z,12.60
2019-02-25T21:18:22.402Z,17.07
2019-02-25T21:20:43.034Z,19.10
2019-02-25T21:22:52.924Z,12.00
2019-02-25T21:25:00.849Z,17.23
2019-02-25T21:27:15.231Z,14.57
2019-02-25T21:29:25.089Z,14.00
2019-02-25T21:31:31.154Z,15.37
2019-02-25T21:33:52.356Z,17.10
2019-02-25T21:35:58.999Z,13.77
2019-02-25T21:38:04.115Z,9.00
2019-02-25T21:40:12.597Z,13.40
2019-02-25T21:42:20.238Z,9.87
2019-02-25T21:44:28.810Z,11.40
2019-02-25T21:46:35.667Z,12.07
2019-02-25T21:48:40.353Z,9.67
2019-02-25T21:50:46.539Z,10.27
2019-02-25T21:52:51.818Z,10.13
2019-02-25T21:55:00.074Z,14.20
2019-02-25T21:57:07.444Z,12.87
2019-02-25T21:59:15.071Z,17.30
2019-02-25T22:01:24.222Z,12.33
2019-02-25T22:03:28.816Z,8.70
2019-02-25T22:05:34.191Z,8.50
2019-02-25T22:07:43.242Z,11.53
2019-02-25T22:09:48.426Z,9.80
2019-02-25T22:11:54.913Z,12.63
2019-02-25T22:14:01.863Z,15.07
2019-02-25T22:16:15.999Z,10.37
2019-02-25T22:18:21.604Z,10.60
2019-02-25T22:20:30.477Z,9.87
2019-02-25T22:22:40.567Z,10.63
2019-02-25T22:24:46.824Z,13.83
2019-02-25T22:26:56.310Z,13.13
2019-02-25T22:29:01.915Z,11.30
2019-02-25T22:31:11.679Z,15.50
2019-02-25T22:33:26.716Z,16.07
2019-02-25T22:35:26.200Z,14.80
2019-02-25T22:37:31.368Z,10.40
2019-02-25T22:39:55.543Z,14.43
2019-02-25T22:42:07.332Z,22.13
2019-02-25T22:44:13.411Z,14.43
2019-02-25T22:46:18.765Z,16.00
2019-02-25T22:48:23.573Z,14.23
2019-02-25T22:50:31.062Z,12.03
2019-02-25T22:52:40.798Z,15.83
2019-02-25T22:54:50.141Z,11.00
2019-02-25T22:56:59.123Z,11.60
2019-02-25T23:01:57.565Z,14.67
2019-02-25T23:04:03.132Z,12.07
2019-02-25T23:06:11.570Z,11.27
2019-02-25T23:08:20.762Z,17.17
2019-02-25T23:10:26.213Z,9.80
2019-02-25T23:13:14.978Z,9.57
2019-02-25T23:15:54.917Z,12.77
2019-02-25T23:18:10.050Z,10.27
2019-02-25T23:20:20.628Z,11.90
2019-02-25T23:22:37.073Z,8.07
2019-02-25T23:25:11.189Z,9.97
2019-02-25T23:27:24.105Z,10.93
2019-02-25T23:29:30.694Z,9.03
2019-02-25T23:31:35.850Z,13.10
2019-02-25T23:33:42.306Z,8.70
2019-02-25T23:35:54.116Z,8.63
2019-02-25T23:38:02.530Z,12.57
2019-02-25T23:40:18.906Z,10.77
2019-02-25T23:42:26.718Z,9.33
2019-02-25T23:44:36.897Z,8.10
2019-02-25T23:47:07.149Z,10.37
2019-02-25T23:49:26.832Z,8.90
2019-02-25T23:51:32.227Z,10.80
2019-02-25T23:53:50.752Z,12.03
2019-02-25T23:56:20.941Z,8.00
2019-02-25T23:58:40.338Z,8.50
